sensor_id;sensor_type;location;lat;lon;timestamp;P1;durP1;ratioP1;P2;durP2;ratioP2
28828;SDS011;15966;51.540;11.870;2023-04-21T00:00:43;21.88;;;16.38;;
28828;SDS011;15966;51.540;11.870;2023-04-21T00:03:09;20.37;;;17.57;;
28828;SDS011;15966;51.540;11.870;2023-04-21T00:05:35;23.05;;;17.73;;
28828;SDS011;15966;51.540;11.870;2023-04-21T00:08:06;24.40;;;18.70;;
28828;SDS011;15966;51.540;11.870;2023-04-21T00:10:32;21.85;;;17.58;;
28828;SDS011;15966;51.540;11.870;2023-04-21T00:12:58;20.02;;;17.85;;
28828;SDS011;15966;51.540;11.870;2023-04-21T00:15:24;25.50;;;17.30;;
28828;SDS011;15966;51.540;11.870;2023-04-21T00:20:16;21.20;;;18.75;;
28828;SDS011;15966;51.540;11.870;2023-04-21T00:22:43;20.92;;;17.65;;
28828;SDS011;15966;51.540;11.870;2023-04-21T00:25:09;25.17;;;18.42;;
28828;SDS011;15966;51.540;11.870;2023-04-21T00:27:35;21.75;;;16.60;;
28828;SDS011;15966;51.540;11.870;2023-04-21T00:30:01;21.20;;;16.67;;
28828;SDS011;15966;51.540;11.870;2023-04-21T00:32:27;27.98;;;17.77;;
28828;SDS011;15966;51.540;11.870;2023-04-21T00:34:53;26.27;;;19.42;;
28828;SDS011;15966;51.540;11.870;2023-04-21T00:37:19;23.60;;;18.73;;
28828;SDS011;15966;51.540;11.870;2023-04-21T00:39:45;20.50;;;17.25;;
28828;SDS011;15966;51.540;11.870;2023-04-21T00:42:14;20.80;;;18.15;;
28828;SDS011;15966;51.540;11.870;2023-04-21T00:44:40;22.08;;;17.45;;
28828;SDS011;15966;51.540;11.870;2023-04-21T00:47:06;23.77;;;19.45;;
28828;SDS011;15966;51.540;11.870;2023-04-21T00:49:32;25.23;;;17.80;;
28828;SDS011;15966;51.540;11.870;2023-04-21T00:51:59;23.85;;;19.23;;
28828;SDS011;15966;51.540;11.870;2023-04-21T00:54:25;23.75;;;17.48;;
28828;SDS011;15966;51.540;11.870;2023-04-21T00:56:51;19.58;;;17.23;;
28828;SDS011;15966;51.540;11.870;2023-04-21T00:59:17;22.92;;;17.70;;
28828;SDS011;15966;51.540;11.870;2023-04-21T01:01:43;22.27;;;19.33;;
28828;SDS011;15966;51.540;11.870;2023-04-21T01:04:10;22.90;;;17.27;;
28828;SDS011;15966;51.540;11.870;2023-04-21T01:06:36;20.45;;;16.52;;
28828;SDS011;15966;51.540;11.870;2023-04-21T01:09:02;21.50;;;15.90;;
28828;SDS011;15966;51.540;11.870;2023-04-21T01:11:29;21.73;;;16.23;;
28828;SDS011;15966;51.540;11.870;2023-04-21T01:13:56;15.63;;;13.77;;
28828;SDS011;15966;51.540;11.870;2023-04-21T01:16:22;22.98;;;15.50;;
28828;SDS011;15966;51.540;11.870;2023-04-21T01:18:49;17.75;;;14.00;;
28828;SDS011;15966;51.540;11.870;2023-04-21T01:21:19;18.00;;;13.20;;
28828;SDS011;15966;51.540;11.870;2023-04-21T01:23:45;19.27;;;14.15;;
28828;SDS011;15966;51.540;11.870;2023-04-21T01:26:12;22.42;;;15.13;;
28828;SDS011;15966;51.540;11.870;2023-04-21T01:28:38;21.10;;;14.82;;
28828;SDS011;15966;51.540;11.870;2023-04-21T01:31:04;19.75;;;14.32;;
28828;SDS011;15966;51.540;11.870;2023-04-21T01:33:30;17.88;;;12.70;;
28828;SDS011;15966;51.540;11.870;2023-04-21T01:35:56;21.83;;;14.52;;
28828;SDS011;15966;51.540;11.870;2023-04-21T01:38:25;20.35;;;12.48;;
28828;SDS011;15966;51.540;11.870;2023-04-21T01:40:51;21.83;;;13.30;;
28828;SDS011;15966;51.540;11.870;2023-04-21T01:43:19;19.63;;;13.00;;
28828;SDS011;15966;51.540;11.870;2023-04-21T01:45:46;17.80;;;13.93;;
28828;SDS011;15966;51.540;11.870;2023-04-21T01:48:13;36.10;;;15.55;;
28828;SDS011;15966;51.540;11.870;2023-04-21T01:50:39;19.02;;;12.55;;
28828;SDS011;15966;51.540;11.870;2023-04-21T01:53:05;17.92;;;12.05;;
28828;SDS011;15966;51.540;11.870;2023-04-21T01:55:31;25.20;;;14.85;;
28828;SDS011;15966;51.540;11.870;2023-04-21T01:57:59;17.50;;;11.98;;
28828;SDS011;15966;51.540;11.870;2023-04-21T02:00:25;18.10;;;11.95;;
28828;SDS011;15966;51.540;11.870;2023-04-21T02:02:51;19.08;;;12.27;;
28828;SDS011;15966;51.540;11.870;2023-04-21T02:05:18;15.43;;;11.95;;
28828;SDS011;15966;51.540;11.870;2023-04-21T02:07:44;16.27;;;11.77;;
28828;SDS011;15966;51.540;11.870;2023-04-21T02:10:10;17.05;;;12.40;;
28828;SDS011;15966;51.540;11.870;2023-04-21T02:12:36;20.38;;;13.88;;
28828;SDS011;15966;51.540;11.870;2023-04-21T02:15:03;17.42;;;10.57;;
28828;SDS011;15966;51.540;11.870;2023-04-21T02:17:29;15.95;;;10.38;;
28828;SDS011;15966;51.540;11.870;2023-04-21T02:19:55;14.27;;;11.35;;
28828;SDS011;15966;51.540;11.870;2023-04-21T02:22:22;21.70;;;11.10;;
28828;SDS011;15966;51.540;11.870;2023-04-21T02:24:48;19.98;;;11.52;;
28828;SDS011;15966;51.540;11.870;2023-04-21T02:27:14;16.33;;;12.40;;
28828;SDS011;15966;51.540;11.870;2023-04-21T02:29:40;15.43;;;11.27;;
28828;SDS011;15966;51.540;11.870;2023-04-21T02:32:07;26.65;;;12.18;;
28828;SDS011;15966;51.540;11.870;2023-04-21T02:34:33;18.15;;;12.60;;
28828;SDS011;15966;51.540;11.870;2023-04-21T02:36:59;13.52;;;11.32;;
28828;SDS011;15966;51.540;11.870;2023-04-21T02:39:25;13.52;;;10.90;;
28828;SDS011;15966;51.540;11.870;2023-04-21T02:41:51;23.58;;;13.27;;
28828;SDS011;15966;51.540;11.870;2023-04-21T02:44:17;17.48;;;12.02;;
28828;SDS011;15966;51.540;11.870;2023-04-21T02:46:43;16.88;;;12.60;;
28828;SDS011;15966;51.540;11.870;2023-04-21T02:49:09;19.58;;;12.48;;
28828;SDS011;15966;51.540;11.870;2023-04-21T02:51:35;18.60;;;12.50;;
28828;SDS011;15966;51.540;11.870;2023-04-21T02:54:02;22.40;;;12.85;;
28828;SDS011;15966;51.540;11.870;2023-04-21T02:56:29;20.77;;;11.57;;
28828;SDS011;15966;51.540;11.870;2023-04-21T02:58:55;12.40;;;10.88;;
28828;SDS011;15966;51.540;11.870;2023-04-21T03:01:22;16.17;;;12.20;;
28828;SDS011;15966;51.540;11.870;2023-04-21T03:03:48;12.10;;;9.73;;
28828;SDS011;15966;51.540;11.870;2023-04-21T03:06:14;19.30;;;11.05;;
28828;SDS011;15966;51.540;11.870;2023-04-21T03:08:40;17.70;;;11.38;;
28828;SDS011;15966;51.540;11.870;2023-04-21T03:11:06;18.10;;;12.00;;
28828;SDS011;15966;51.540;11.870;2023-04-21T03:13:32;21.35;;;12.25;;
28828;SDS011;15966;51.540;11.870;2023-04-21T03:15:58;19.00;;;10.60;;
28828;SDS011;15966;51.540;11.870;2023-04-21T03:18:24;19.08;;;11.95;;
28828;SDS011;15966;51.540;11.870;2023-04-21T03:20:50;28.35;;;11.85;;
28828;SDS011;15966;51.540;11.870;2023-04-21T03:23:16;13.93;;;10.65;;
28828;SDS011;15966;51.540;11.870;2023-04-21T03:25:42;14.98;;;11.32;;
28828;SDS011;15966;51.540;11.870;2023-04-21T03:28:09;21.08;;;11.15;;
28828;SDS011;15966;51.540;11.870;2023-04-21T03:30:35;12.00;;;10.25;;
28828;SDS011;15966;51.540;11.870;2023-04-21T03:33:01;13.00;;;10.90;;
28828;SDS011;15966;51.540;11.870;2023-04-21T03:35:27;32.38;;;13.23;;
28828;SDS011;15966;51.540;11.870;2023-04-21T03:37:54;17.17;;;10.57;;
28828;SDS011;15966;51.540;11.870;2023-04-21T03:40:20;18.40;;;11.50;;
28828;SDS011;15966;51.540;11.870;2023-04-21T03:42:46;15.93;;;11.35;;
28828;SDS011;15966;51.540;11.870;2023-04-21T03:45:12;15.50;;;10.95;;
28828;SDS011;15966;51.540;11.870;2023-04-21T03:47:39;18.67;;;10.48;;
28828;SDS011;15966;51.540;11.870;2023-04-21T03:50:05;22.42;;;11.65;;
28828;SDS011;15966;51.540;11.870;2023-04-21T03:52:31;14.82;;;11.00;;
28828;SDS011;15966;51.540;11.870;2023-04-21T03:54:58;11.77;;;10.48;;
28828;SDS011;15966;51.540;11.870;2023-04-21T03:57:24;17.15;;;10.57;;
28828;SDS011;15966;51.540;11.870;2023-04-21T03:59:50;23.73;;;11.43;;
28828;SDS011;15966;51.540;11.870;2023-04-21T04:02:17;14.63;;;11.32;;
28828;SDS011;15966;51.540;11.870;2023-04-21T04:04:43;19.50;;;10.63;;
28828;SDS011;15966;51.540;11.870;2023-04-21T04:07:09;17.65;;;11.02;;
28828;SDS011;15966;51.540;11.870;2023-04-21T04:09:35;16.00;;;10.73;;
28828;SDS011;15966;51.540;11.870;2023-04-21T04:12:02;18.90;;;11.00;;
28828;SDS011;15966;51.540;11.870;2023-04-21T04:14:28;15.70;;;12.02;;
28828;SDS011;15966;51.540;11.870;2023-04-21T04:16:54;18.25;;;10.98;;
28828;SDS011;15966;51.540;11.870;2023-04-21T04:19:20;18.98;;;11.88;;
28828;SDS011;15966;51.540;11.870;2023-04-21T04:21:46;18.15;;;12.13;;
28828;SDS011;15966;51.540;11.870;2023-04-21T04:24:13;21.77;;;10.48;;
28828;SDS011;15966;51.540;11.870;2023-04-21T04:26:39;14.63;;;10.70;;
28828;SDS011;15966;51.540;11.870;2023-04-21T04:29:05;15.30;;;10.43;;
28828;SDS011;15966;51.540;11.870;2023-04-21T04:31:34;17.50;;;10.95;;
28828;SDS011;15966;51.540;11.870;2023-04-21T04:34:00;11.73;;;10.05;;
28828;SDS011;15966;51.540;11.870;2023-04-21T04:36:26;15.90;;;11.48;;
28828;SDS011;15966;51.540;11.870;2023-04-21T04:38:53;27.27;;;12.45;;
28828;SDS011;15966;51.540;11.870;2023-04-21T04:41:20;12.80;;;10.13;;
28828;SDS011;15966;51.540;11.870;2023-04-21T04:43:46;20.40;;;12.02;;
28828;SDS011;15966;51.540;11.870;2023-04-21T04:46:12;18.65;;;12.35;;
28828;SDS011;15966;51.540;11.870;2023-04-21T04:48:38;16.10;;;11.07;;
28828;SDS011;15966;51.540;11.870;2023-04-21T04:51:04;15.82;;;11.63;;
28828;SDS011;15966;51.540;11.870;2023-04-21T04:53:30;17.08;;;12.18;;
28828;SDS011;15966;51.540;11.870;2023-04-21T04:55:57;13.10;;;10.43;;
28828;SDS011;15966;51.540;11.870;2023-04-21T04:58:23;19.55;;;12.10;;
28828;SDS011;15966;51.540;11.870;2023-04-21T05:00:49;11.80;;;10.20;;
28828;SDS011;15966;51.540;11.870;2023-04-21T05:03:16;14.13;;;10.93;;
28828;SDS011;15966;51.540;11.870;2023-04-21T05:05:42;21.83;;;11.32;;
28828;SDS011;15966;51.540;11.870;2023-04-21T05:08:10;14.43;;;10.52;;
28828;SDS011;15966;51.540;11.870;2023-04-21T05:10:36;20.05;;;11.45;;
28828;SDS011;15966;51.540;11.870;2023-04-21T05:13:02;19.80;;;11.50;;
28828;SDS011;15966;51.540;11.870;2023-04-21T05:15:28;15.73;;;10.45;;
28828;SDS011;15966;51.540;11.870;2023-04-21T05:17:54;18.17;;;12.10;;
28828;SDS011;15966;51.540;11.870;2023-04-21T05:20:20;15.40;;;11.15;;
28828;SDS011;15966;51.540;11.870;2023-04-21T05:22:46;18.30;;;11.20;;
28828;SDS011;15966;51.540;11.870;2023-04-21T05:25:13;16.83;;;11.95;;
28828;SDS011;15966;51.540;11.870;2023-04-21T05:27:40;16.33;;;11.90;;
28828;SDS011;15966;51.540;11.870;2023-04-21T05:30:06;15.52;;;11.13;;
28828;SDS011;15966;51.540;11.870;2023-04-21T05:32:33;12.18;;;10.02;;
28828;SDS011;15966;51.540;11.870;2023-04-21T05:34:59;21.20;;;11.20;;
28828;SDS011;15966;51.540;11.870;2023-04-21T05:37:25;17.00;;;10.70;;
28828;SDS011;15966;51.540;11.870;2023-04-21T05:39:51;14.23;;;10.77;;
28828;SDS011;15966;51.540;11.870;2023-04-21T05:42:17;15.98;;;11.15;;
28828;SDS011;15966;51.540;11.870;2023-04-21T05:44:44;14.48;;;9.80;;
28828;SDS011;15966;51.540;11.870;2023-04-21T05:47:10;13.02;;;10.07;;
28828;SDS011;15966;51.540;11.870;2023-04-21T05:49:36;22.38;;;12.65;;
28828;SDS011;15966;51.540;11.870;2023-04-21T05:52:02;21.50;;;11.57;;
28828;SDS011;15966;51.540;11.870;2023-04-21T05:54:28;15.02;;;10.75;;
28828;SDS011;15966;51.540;11.870;2023-04-21T05:56:54;19.23;;;11.20;;
28828;SDS011;15966;51.540;11.870;2023-04-21T05:59:20;21.67;;;11.07;;
28828;SDS011;15966;51.540;11.870;2023-04-21T06:01:46;18.45;;;10.70;;
28828;SDS011;15966;51.540;11.870;2023-04-21T06:04:13;14.98;;;10.57;;
28828;SDS011;15966;51.540;11.870;2023-04-21T06:06:39;17.77;;;11.75;;
28828;SDS011;15966;51.540;11.870;2023-04-21T06:09:05;18.30;;;10.27;;
28828;SDS011;15966;51.540;11.870;2023-04-21T06:11:32;15.05;;;10.43;;
28828;SDS011;15966;51.540;11.870;2023-04-21T06:13:58;21.90;;;11.13;;
28828;SDS011;15966;51.540;11.870;2023-04-21T06:16:25;17.13;;;11.45;;
28828;SDS011;15966;51.540;11.870;2023-04-21T06:18:51;11.00;;;9.80;;
28828;SDS011;15966;51.540;11.870;2023-04-21T06:21:18;21.92;;;10.35;;
28828;SDS011;15966;51.540;11.870;2023-04-21T06:23:44;16.15;;;10.98;;
28828;SDS011;15966;51.540;11.870;2023-04-21T06:26:10;15.13;;;9.60;;
28828;SDS011;15966;51.540;11.870;2023-04-21T06:28:37;21.23;;;10.35;;
28828;SDS011;15966;51.540;11.870;2023-04-21T06:31:03;15.75;;;10.00;;
28828;SDS011;15966;51.540;11.870;2023-04-21T06:33:29;12.23;;;9.60;;
28828;SDS011;15966;51.540;11.870;2023-04-21T06:35:56;18.55;;;9.45;;
28828;SDS011;15966;51.540;11.870;2023-04-21T06:38:22;23.70;;;10.48;;
28828;SDS011;15966;51.540;11.870;2023-04-21T06:40:48;20.80;;;10.02;;
28828;SDS011;15966;51.540;11.870;2023-04-21T06:43:15;17.83;;;10.68;;
28828;SDS011;15966;51.540;11.870;2023-04-21T06:45:41;21.40;;;10.27;;
28828;SDS011;15966;51.540;11.870;2023-04-21T06:48:07;27.20;;;11.32;;
28828;SDS011;15966;51.540;11.870;2023-04-21T06:50:33;23.10;;;10.20;;
28828;SDS011;15966;51.540;11.870;2023-04-21T06:52:59;23.02;;;10.75;;
28828;SDS011;15966;51.540;11.870;2023-04-21T06:55:25;15.02;;;9.85;;
28828;SDS011;15966;51.540;11.870;2023-04-21T06:57:51;24.02;;;10.35;;
28828;SDS011;15966;51.540;11.870;2023-04-21T07:00:17;18.27;;;10.57;;
28828;SDS011;15966;51.540;11.870;2023-04-21T07:02:43;17.25;;;10.20;;
28828;SDS011;15966;51.540;11.870;2023-04-21T07:05:10;19.25;;;10.48;;
28828;SDS011;15966;51.540;11.870;2023-04-21T07:07:36;18.15;;;10.55;;
28828;SDS011;15966;51.540;11.870;2023-04-21T07:10:02;16.10;;;9.48;;
28828;SDS011;15966;51.540;11.870;2023-04-21T07:12:28;18.60;;;11.38;;
28828;SDS011;15966;51.540;11.870;2023-04-21T07:14:54;12.20;;;9.65;;
28828;SDS011;15966;51.540;11.870;2023-04-21T07:17:20;22.45;;;10.63;;
28828;SDS011;15966;51.540;11.870;2023-04-21T07:19:46;16.90;;;9.80;;
28828;SDS011;15966;51.540;11.870;2023-04-21T07:22:12;13.77;;;8.80;;
28828;SDS011;15966;51.540;11.870;2023-04-21T07:24:38;13.20;;;8.73;;
28828;SDS011;15966;51.540;11.870;2023-04-21T07:27:04;16.80;;;10.63;;
28828;SDS011;15966;51.540;11.870;2023-04-21T07:29:30;14.18;;;9.77;;
28828;SDS011;15966;51.540;11.870;2023-04-21T07:31:57;15.88;;;11.13;;
28828;SDS011;15966;51.540;11.870;2023-04-21T07:34:23;11.95;;;9.18;;
28828;SDS011;15966;51.540;11.870;2023-04-21T07:36:54;16.83;;;9.32;;
28828;SDS011;15966;51.540;11.870;2023-04-21T07:39:22;22.25;;;11.05;;
28828;SDS011;15966;51.540;11.870;2023-04-21T07:41:48;26.55;;;8.57;;
28828;SDS011;15966;51.540;11.870;2023-04-21T07:44:14;14.63;;;9.30;;
28828;SDS011;15966;51.540;11.870;2023-04-21T07:46:40;21.63;;;9.20;;
28828;SDS011;15966;51.540;11.870;2023-04-21T07:49:06;21.90;;;9.93;;
28828;SDS011;15966;51.540;11.870;2023-04-21T07:51:32;17.42;;;8.93;;
28828;SDS011;15966;51.540;11.870;2023-04-21T07:53:58;16.67;;;9.43;;
28828;SDS011;15966;51.540;11.870;2023-04-21T07:56:24;18.10;;;9.25;;
28828;SDS011;15966;51.540;11.870;2023-04-21T07:58:50;14.23;;;9.27;;
28828;SDS011;15966;51.540;11.870;2023-04-21T08:01:16;17.00;;;9.45;;
28828;SDS011;15966;51.540;11.870;2023-04-21T08:03:42;24.58;;;9.52;;
28828;SDS011;15966;51.540;11.870;2023-04-21T08:06:09;20.25;;;9.50;;
28828;SDS011;15966;51.540;11.870;2023-04-21T08:08:35;17.08;;;8.40;;
28828;SDS011;15966;51.540;11.870;2023-04-21T08:11:01;18.85;;;9.57;;
28828;SDS011;15966;51.540;11.870;2023-04-21T08:13:27;13.77;;;8.75;;
28828;SDS011;15966;51.540;11.870;2023-04-21T08:15:53;11.50;;;8.05;;
28828;SDS011;15966;51.540;11.870;2023-04-21T08:18:20;20.13;;;10.18;;
28828;SDS011;15966;51.540;11.870;2023-04-21T08:20:47;18.50;;;7.88;;
28828;SDS011;15966;51.540;11.870;2023-04-21T08:23:13;14.88;;;8.45;;
28828;SDS011;15966;51.540;11.870;2023-04-21T08:25:39;13.18;;;9.13;;
28828;SDS011;15966;51.540;11.870;2023-04-21T08:28:06;13.65;;;8.50;;
28828;SDS011;15966;51.540;11.870;2023-04-21T08:30:32;13.18;;;8.82;;
28828;SDS011;15966;51.540;11.870;2023-04-21T08:32:58;10.32;;;7.65;;
28828;SDS011;15966;51.540;11.870;2023-04-21T08:35:24;17.15;;;8.07;;
28828;SDS011;15966;51.540;11.870;2023-04-21T08:37:50;14.57;;;7.40;;
28828;SDS011;15966;51.540;11.870;2023-04-21T08:40:16;17.00;;;8.98;;
28828;SDS011;15966;51.540;11.870;2023-04-21T08:42:43;13.73;;;7.88;;
28828;SDS011;15966;51.540;11.870;2023-04-21T08:45:10;13.00;;;8.65;;
28828;SDS011;15966;51.540;11.870;2023-04-21T08:47:37;20.65;;;9.05;;
28828;SDS011;15966;51.540;11.870;2023-04-21T08:50:05;10.70;;;7.22;;
28828;SDS011;15966;51.540;11.870;2023-04-21T08:52:36;14.82;;;7.85;;
28828;SDS011;15966;51.540;11.870;2023-04-21T08:55:02;13.25;;;7.22;;
28828;SDS011;15966;51.540;11.870;2023-04-21T08:57:31;13.32;;;8.25;;
28828;SDS011;15966;51.540;11.870;2023-04-21T08:59:57;12.98;;;7.35;;
28828;SDS011;15966;51.540;11.870;2023-04-21T09:02:23;10.63;;;7.70;;
28828;SDS011;15966;51.540;11.870;2023-04-21T09:04:50;14.75;;;6.68;;
28828;SDS011;15966;51.540;11.870;2023-04-21T09:07:36;12.95;;;7.10;;
28828;SDS011;15966;51.540;11.870;2023-04-21T09:10:06;10.80;;;7.05;;
28828;SDS011;15966;51.540;11.870;2023-04-21T09:12:32;14.00;;;7.97;;
28828;SDS011;15966;51.540;11.870;2023-04-21T09:14:58;19.88;;;8.13;;
28828;SDS011;15966;51.540;11.870;2023-04-21T09:17:29;18.05;;;8.40;;
28828;SDS011;15966;51.540;11.870;2023-04-21T09:20:17;11.68;;;7.45;;
28828;SDS011;15966;51.540;11.870;2023-04-21T09:22:44;17.33;;;7.53;;
28828;SDS011;15966;51.540;11.870;2023-04-21T09:25:15;12.55;;;7.10;;
28828;SDS011;15966;51.540;11.870;2023-04-21T09:27:45;9.60;;;6.97;;
28828;SDS011;15966;51.540;11.870;2023-04-21T09:30:12;16.13;;;7.15;;
28828;SDS011;15966;51.540;11.870;2023-04-21T09:32:39;9.40;;;5.93;;
28828;SDS011;15966;51.540;11.870;2023-04-21T09:35:08;13.73;;;6.88;;
28828;SDS011;15966;51.540;11.870;2023-04-21T09:37:35;13.38;;;6.80;;
28828;SDS011;15966;51.540;11.870;2023-04-21T09:40:01;13.88;;;6.55;;
28828;SDS011;15966;51.540;11.870;2023-04-21T09:42:28;8.40;;;6.72;;
28828;SDS011;15966;51.540;11.870;2023-04-21T09:44:54;10.40;;;6.47;;
28828;SDS011;15966;51.540;11.870;2023-04-21T09:47:21;15.07;;;5.80;;
28828;SDS011;15966;51.540;11.870;2023-04-21T09:49:50;7.85;;;5.15;;
28828;SDS011;15966;51.540;11.870;2023-04-21T09:52:20;9.35;;;5.90;;
28828;SDS011;15966;51.540;11.870;2023-04-21T09:54:50;6.90;;;5.55;;
28828;SDS011;15966;51.540;11.870;2023-04-21T09:57:23;7.68;;;5.25;;
28828;SDS011;15966;51.540;11.870;2023-04-21T09:59:53;15.38;;;6.05;;
28828;SDS011;15966;51.540;11.870;2023-04-21T10:02:29;9.68;;;5.03;;
28828;SDS011;15966;51.540;11.870;2023-04-21T10:04:55;10.20;;;5.63;;
28828;SDS011;15966;51.540;11.870;2023-04-21T10:07:22;11.18;;;5.35;;
28828;SDS011;15966;51.540;11.870;2023-04-21T10:09:51;11.77;;;5.18;;
28828;SDS011;15966;51.540;11.870;2023-04-21T10:12:20;10.27;;;4.68;;
28828;SDS011;15966;51.540;11.870;2023-04-21T10:14:51;9.30;;;5.38;;
28828;SDS011;15966;51.540;11.870;2023-04-21T10:17:19;11.88;;;5.47;;
28828;SDS011;15966;51.540;11.870;2023-04-21T10:19:50;12.30;;;4.88;;
28828;SDS011;15966;51.540;11.870;2023-04-21T10:22:30;8.43;;;5.07;;
28828;SDS011;15966;51.540;11.870;2023-04-21T10:24:58;12.82;;;5.55;;
28828;SDS011;15966;51.540;11.870;2023-04-21T10:29:58;9.30;;;5.65;;
28828;SDS011;15966;51.540;11.870;2023-04-21T10:32:40;9.68;;;5.13;;
28828;SDS011;15966;51.540;11.870;2023-04-21T10:35:07;7.88;;;4.55;;
28828;SDS011;15966;51.540;11.870;2023-04-21T10:40:00;10.27;;;4.22;;
28828;SDS011;15966;51.540;11.870;2023-04-21T10:42:33;10.57;;;5.00;;
28828;SDS011;15966;51.540;11.870;2023-04-21T10:45:03;16.20;;;5.40;;
28828;SDS011;15966;51.540;11.870;2023-04-21T10:55:20;9.27;;;4.63;;
28828;SDS011;15966;51.540;11.870;2023-04-21T10:57:47;7.38;;;4.30;;
28828;SDS011;15966;51.540;11.870;2023-04-21T11:00:14;7.80;;;4.65;;
28828;SDS011;15966;51.540;11.870;2023-04-21T11:02:51;6.28;;;3.67;;
28828;SDS011;15966;51.540;11.870;2023-04-21T11:05:19;8.27;;;4.65;;
28828;SDS011;15966;51.540;11.870;2023-04-21T11:07:51;6.18;;;4.20;;
28828;SDS011;15966;51.540;11.870;2023-04-21T11:10:25;10.55;;;4.10;;
28828;SDS011;15966;51.540;11.870;2023-04-21T11:12:51;16.42;;;4.00;;
28828;SDS011;15966;51.540;11.870;2023-04-21T11:15:22;12.70;;;4.53;;
28828;SDS011;15966;51.540;11.870;2023-04-21T11:17:48;7.90;;;4.10;;
28828;SDS011;15966;51.540;11.870;2023-04-21T11:20:14;8.32;;;3.85;;
28828;SDS011;15966;51.540;11.870;2023-04-21T11:22:40;9.30;;;4.18;;
28828;SDS011;15966;51.540;11.870;2023-04-21T11:25:14;6.95;;;4.05;;
28828;SDS011;15966;51.540;11.870;2023-04-21T11:27:41;12.45;;;4.18;;
28828;SDS011;15966;51.540;11.870;2023-04-21T11:30:16;6.80;;;4.35;;
28828;SDS011;15966;51.540;11.870;2023-04-21T11:32:42;8.52;;;4.38;;
28828;SDS011;15966;51.540;11.870;2023-04-21T11:35:09;8.55;;;4.35;;
28828;SDS011;15966;51.540;11.870;2023-04-21T11:37:35;4.80;;;3.33;;
28828;SDS011;15966;51.540;11.870;2023-04-21T11:40:02;9.02;;;4.00;;
28828;SDS011;15966;51.540;11.870;2023-04-21T11:42:30;6.85;;;4.18;;
28828;SDS011;15966;51.540;11.870;2023-04-21T11:44:56;7.30;;;4.45;;
28828;SDS011;15966;51.540;11.870;2023-04-21T11:47:25;8.07;;;4.63;;
28828;SDS011;15966;51.540;11.870;2023-04-21T11:49:53;6.10;;;4.72;;
28828;SDS011;15966;51.540;11.870;2023-04-21T11:52:30;7.30;;;3.75;;
28828;SDS011;15966;51.540;11.870;2023-04-21T11:55:01;7.53;;;5.10;;
28828;SDS011;15966;51.540;11.870;2023-04-21T11:57:29;10.50;;;4.13;;
28828;SDS011;15966;51.540;11.870;2023-04-21T12:00:00;10.85;;;4.05;;
28828;SDS011;15966;51.540;11.870;2023-04-21T12:02:28;6.95;;;4.50;;
28828;SDS011;15966;51.540;11.870;2023-04-21T12:04:55;6.00;;;4.22;;
28828;SDS011;15966;51.540;11.870;2023-04-21T12:07:23;7.70;;;4.50;;
28828;SDS011;15966;51.540;11.870;2023-04-21T12:09:50;6.78;;;3.70;;
28828;SDS011;15966;51.540;11.870;2023-04-21T12:12:17;8.20;;;3.92;;
28828;SDS011;15966;51.540;11.870;2023-04-21T12:14:43;11.30;;;4.88;;
28828;SDS011;15966;51.540;11.870;2023-04-21T12:17:10;6.93;;;4.00;;
28828;SDS011;15966;51.540;11.870;2023-04-21T12:19:40;6.78;;;3.97;;
28828;SDS011;15966;51.540;11.870;2023-04-21T12:22:07;5.18;;;4.05;;
28828;SDS011;15966;51.540;11.870;2023-04-21T12:24:33;5.85;;;3.45;;
28828;SDS011;15966;51.540;11.870;2023-04-21T12:27:00;5.10;;;3.58;;
28828;SDS011;15966;51.540;11.870;2023-04-21T12:29:26;7.03;;;4.47;;
28828;SDS011;15966;51.540;11.870;2023-04-21T12:31:52;6.90;;;4.40;;
28828;SDS011;15966;51.540;11.870;2023-04-21T12:34:18;7.28;;;4.38;;
28828;SDS011;15966;51.540;11.870;2023-04-21T12:36:44;7.22;;;3.40;;
28828;SDS011;15966;51.540;11.870;2023-04-21T12:39:11;6.05;;;3.25;;
28828;SDS011;15966;51.540;11.870;2023-04-21T12:41:37;5.25;;;3.45;;
28828;SDS011;15966;51.540;11.870;2023-04-21T12:44:04;13.43;;;4.33;;
28828;SDS011;15966;51.540;11.870;2023-04-21T12:46:31;5.90;;;2.95;;
28828;SDS011;15966;51.540;11.870;2023-04-21T12:48:57;5.90;;;4.35;;
28828;SDS011;15966;51.540;11.870;2023-04-21T12:51:23;11.82;;;4.55;;
28828;SDS011;15966;51.540;11.870;2023-04-21T12:53:50;5.53;;;3.40;;
28828;SDS011;15966;51.540;11.870;2023-04-21T12:56:16;7.88;;;3.88;;
28828;SDS011;15966;51.540;11.870;2023-04-21T12:58:42;8.03;;;3.07;;
28828;SDS011;15966;51.540;11.870;2023-04-21T13:01:08;6.57;;;3.85;;
28828;SDS011;15966;51.540;11.870;2023-04-21T13:03:38;6.13;;;3.88;;
28828;SDS011;15966;51.540;11.870;2023-04-21T13:06:04;7.18;;;4.15;;
28828;SDS011;15966;51.540;11.870;2023-04-21T13:08:30;4.47;;;3.10;;
28828;SDS011;15966;51.540;11.870;2023-04-21T13:10:56;6.75;;;3.80;;
28828;SDS011;15966;51.540;11.870;2023-04-21T13:13:23;6.28;;;3.60;;
28828;SDS011;15966;51.540;11.870;2023-04-21T13:15:49;5.03;;;3.28;;
28828;SDS011;15966;51.540;11.870;2023-04-21T13:18:15;5.05;;;3.83;;
28828;SDS011;15966;51.540;11.870;2023-04-21T13:20:41;8.35;;;4.03;;
28828;SDS011;15966;51.540;11.870;2023-04-21T13:23:07;6.88;;;3.97;;
28828;SDS011;15966;51.540;11.870;2023-04-21T13:25:35;6.18;;;3.55;;
28828;SDS011;15966;51.540;11.870;2023-04-21T13:28:01;11.50;;;3.60;;
28828;SDS011;15966;51.540;11.870;2023-04-21T13:30:27;9.75;;;4.47;;
28828;SDS011;15966;51.540;11.870;2023-04-21T13:32:54;5.40;;;3.47;;
28828;SDS011;15966;51.540;11.870;2023-04-21T13:35:20;7.43;;;4.07;;
28828;SDS011;15966;51.540;11.870;2023-04-21T13:37:46;7.18;;;3.65;;
28828;SDS011;15966;51.540;11.870;2023-04-21T13:42:39;9.57;;;3.53;;
28828;SDS011;15966;51.540;11.870;2023-04-21T13:45:06;8.95;;;4.35;;
28828;SDS011;15966;51.540;11.870;2023-04-21T13:47:32;7.75;;;2.90;;
28828;SDS011;15966;51.540;11.870;2023-04-21T13:49:59;7.55;;;3.90;;
28828;SDS011;15966;51.540;11.870;2023-04-21T13:52:25;6.45;;;3.80;;
28828;SDS011;15966;51.540;11.870;2023-04-21T13:54:51;8.30;;;3.95;;
28828;SDS011;15966;51.540;11.870;2023-04-21T13:57:17;5.70;;;3.33;;
28828;SDS011;15966;51.540;11.870;2023-04-21T13:59:44;8.35;;;4.10;;
28828;SDS011;15966;51.540;11.870;2023-04-21T14:02:10;7.70;;;3.70;;
28828;SDS011;15966;51.540;11.870;2023-04-21T14:04:37;8.52;;;4.05;;
28828;SDS011;15966;51.540;11.870;2023-04-21T14:07:03;6.80;;;3.95;;
28828;SDS011;15966;51.540;11.870;2023-04-21T14:09:29;6.68;;;3.83;;
28828;SDS011;15966;51.540;11.870;2023-04-21T14:11:55;7.60;;;3.45;;
28828;SDS011;15966;51.540;11.870;2023-04-21T14:14:21;6.30;;;3.53;;
28828;SDS011;15966;51.540;11.870;2023-04-21T14:16:47;10.07;;;3.47;;
28828;SDS011;15966;51.540;11.870;2023-04-21T14:19:14;12.07;;;4.88;;
28828;SDS011;15966;51.540;11.870;2023-04-21T14:21:40;5.82;;;3.60;;
28828;SDS011;15966;51.540;11.870;2023-04-21T14:24:07;6.50;;;4.18;;
28828;SDS011;15966;51.540;11.870;2023-04-21T14:26:33;5.40;;;3.58;;
28828;SDS011;15966;51.540;11.870;2023-04-21T14:28:59;8.07;;;3.55;;
28828;SDS011;15966;51.540;11.870;2023-04-21T14:31:29;5.45;;;3.45;;
28828;SDS011;15966;51.540;11.870;2023-04-21T14:33:55;6.50;;;3.50;;